createdAt,value
2018-11-02T00:01:55.082Z,3.29
2018-11-02T00:06:58.272Z,3.63
2018-11-02T00:12:01.541Z,3.64
2018-11-02T00:17:04.746Z,3.87
2018-11-02T00:22:08.071Z,4.10
2018-11-02T00:27:11.289Z,4.34
2018-11-02T00:32:14.601Z,4.53
2018-11-02T00:37:17.959Z,4.56
2018-11-02T00:42:21.140Z,4.50
2018-11-02T00:47:24.336Z,4.43
2018-11-02T00:52:27.523Z,4.49
2018-11-02T00:57:30.714Z,4.44
2018-11-02T01:02:33.849Z,4.48
2018-11-02T01:07:37.011Z,4.39
2018-11-02T01:12:40.221Z,4.07
2018-11-02T01:17:43.479Z,3.80
2018-11-02T01:22:46.640Z,3.58
2018-11-02T01:27:49.808Z,3.42
2018-11-02T01:32:52.990Z,3.61
2018-11-02T01:37:56.320Z,3.81
2018-11-02T01:42:59.571Z,3.88
2018-11-02T01:48:02.762Z,4.04
2018-11-02T01:53:08.859Z,4.13
2018-11-02T01:58:12.074Z,4.35
2018-11-02T02:03:15.233Z,4.00
2018-11-02T02:08:18.446Z,3.90
2018-11-02T02:13:21.796Z,3.80
2018-11-02T02:18:25.080Z,3.76
2018-11-02T02:23:28.594Z,3.74
2018-11-02T02:28:31.819Z,3.84
2018-11-02T02:33:35.012Z,3.89
2018-11-02T02:38:38.205Z,3.89
2018-11-02T02:43:41.392Z,4.12
2018-11-02T02:48:44.762Z,4.34
2018-11-02T02:53:48.172Z,4.56
2018-11-02T02:58:51.589Z,4.76
2018-11-02T03:03:54.873Z,4.95
2018-11-02T03:08:58.054Z,5.15
2018-11-02T03:14:01.236Z,5.26
2018-11-02T03:19:04.458Z,5.22
2018-11-02T03:24:08.989Z,5.28
2018-11-02T03:29:12.335Z,5.25
2018-11-02T03:34:15.559Z,5.21
2018-11-02T03:39:18.818Z,5.30
2018-11-02T03:44:22.034Z,5.33
2018-11-02T03:49:26.059Z,5.27
2018-11-02T03:54:29.471Z,5.34
2018-11-02T03:59:37.416Z,5.03
2018-11-02T04:04:40.953Z,4.85
2018-11-02T04:09:45.307Z,4.95
2018-11-02T04:14:49.095Z,5.01
2018-11-02T04:19:52.413Z,5.02
2018-11-02T04:24:55.670Z,4.94
2018-11-02T04:29:58.879Z,4.99
2018-11-02T04:35:03.672Z,4.91
2018-11-02T04:40:07.669Z,4.92
2018-11-02T04:45:10.927Z,5.14
2018-11-02T04:50:14.296Z,5.29
2018-11-02T04:55:17.532Z,5.14
2018-11-02T05:00:20.818Z,5.03
2018-11-02T05:05:24.115Z,4.88
2018-11-02T05:10:28.680Z,5.08
2018-11-02T05:15:34.338Z,5.32
2018-11-02T05:20:38.379Z,5.30
2018-11-02T05:25:41.622Z,5.13
2018-11-02T05:30:45.001Z,5.22
2018-11-02T05:35:48.223Z,5.16
2018-11-02T05:40:51.462Z,5.06
2018-11-02T05:45:54.786Z,5.14
2018-11-02T05:50:58.025Z,5.03
2018-11-02T05:56:01.253Z,4.96
2018-11-02T06:01:04.723Z,4.78
2018-11-02T06:06:07.907Z,4.76
2018-11-02T06:11:11.149Z,4.72
2018-11-02T06:16:14.436Z,4.72
2018-11-02T06:21:18.345Z,4.88
2018-11-02T06:26:21.548Z,5.00
2018-11-02T06:31:24.800Z,5.03
2018-11-02T06:36:28.116Z,4.95
2018-11-02T06:41:31.360Z,5.09
2018-11-02T06:46:34.531Z,5.25
2018-11-02T06:51:37.739Z,5.42
2018-11-02T06:56:40.957Z,5.60
2018-11-02T07:01:44.266Z,5.73
2018-11-02T07:06:47.665Z,5.77
2018-11-02T07:11:50.889Z,5.92
2018-11-02T07:16:54.408Z,6.01
2018-11-02T07:21:57.832Z,6.06
2018-11-02T07:27:01.313Z,5.99
2018-11-02T07:32:04.612Z,6.07
2018-11-02T07:37:07.832Z,6.11
2018-11-02T07:42:11.221Z,6.33
2018-11-02T07:47:20.225Z,6.58
2018-11-02T07:52:23.589Z,6.84
2018-11-02T07:57:26.815Z,7.11
2018-11-02T08:02:30.034Z,7.34
2018-11-02T08:07:33.476Z,7.53
2018-11-02T08:12:36.727Z,7.53
2018-11-02T08:17:40.179Z,7.75
2018-11-02T08:22:45.366Z,8.06
2018-11-02T08:27:48.508Z,8.24
2018-11-02T08:32:51.698Z,8.38
2018-11-02T08:37:54.947Z,8.63
2018-11-02T08:42:58.112Z,8.58
2018-11-02T08:48:02.295Z,8.88
2018-11-02T08:53:06.253Z,9.56
2018-11-02T08:58:11.086Z,9.82
2018-11-02T09:03:14.247Z,10.12
2018-11-02T09:08:17.465Z,10.41
2018-11-02T09:13:20.662Z,10.74
2018-11-02T09:18:23.889Z,10.69
2018-11-02T09:23:27.106Z,10.93
2018-11-02T09:28:30.393Z,10.82
2018-11-02T09:33:33.745Z,11.04
2018-11-02T09:38:36.895Z,11.24
2018-11-02T09:43:40.077Z,11.17
2018-11-02T09:48:43.475Z,11.08
2018-11-02T09:53:46.885Z,11.22
2018-11-02T09:58:50.448Z,11.49
2018-11-02T10:03:54.153Z,11.49
2018-11-02T10:08:57.594Z,11.48
2018-11-02T10:14:01.618Z,11.75
2018-11-02T10:19:05.980Z,12.97
2018-11-02T10:24:09.219Z,14.38
2018-11-02T10:29:14.261Z,15.02
2018-11-02T10:34:17.717Z,15.59
2018-11-02T10:39:21.048Z,16.66
2018-11-02T10:44:27.846Z,15.78
2018-11-02T10:49:31.124Z,15.91
2018-11-02T10:54:36.076Z,15.78
2018-11-02T10:59:39.604Z,16.06
2018-11-02T11:04:42.810Z,16.28
2018-11-02T11:09:46.133Z,16.74
2018-11-02T11:14:49.427Z,16.87
2018-11-02T11:19:52.706Z,15.97
2018-11-02T11:24:55.965Z,15.38
2018-11-02T11:30:14.271Z,14.88
2018-11-02T11:35:17.592Z,14.74
2018-11-02T11:40:20.747Z,15.14
2018-11-02T11:45:23.974Z,14.87
2018-11-02T11:50:27.180Z,14.41
2018-11-02T11:55:30.315Z,14.17
2018-11-02T12:00:33.641Z,14.03
2018-11-02T12:05:36.984Z,14.41
2018-11-02T12:10:40.275Z,14.57
2018-11-02T12:15:43.763Z,14.71
2018-11-02T12:20:47.078Z,14.86
2018-11-02T12:25:50.762Z,14.21
2018-11-02T12:30:54.058Z,14.68
2018-11-02T12:35:57.769Z,15.48
2018-11-02T12:41:01.462Z,15.78
2018-11-02T12:46:05.056Z,15.52
2018-11-02T12:51:08.393Z,14.84
2018-11-02T12:56:11.663Z,15.77
2018-11-02T13:01:14.878Z,15.66
2018-11-02T13:06:18.265Z,15.65
2018-11-02T13:11:21.471Z,15.60
2018-11-02T13:16:24.728Z,15.80
2018-11-02T13:21:27.951Z,15.41
2018-11-02T13:26:31.182Z,15.15
2018-11-02T13:31:35.048Z,14.73
2018-11-02T13:36:38.426Z,14.70
2018-11-02T13:41:41.460Z,14.60
2018-11-02T13:46:44.984Z,14.60
2018-11-02T13:51:48.218Z,14.40
2018-11-02T13:56:51.541Z,14.42
2018-11-02T14:01:56.827Z,14.21
2018-11-02T14:07:00.159Z,14.10
2018-11-02T14:12:03.396Z,13.94
2018-11-02T14:17:06.719Z,13.78
2018-11-02T14:22:11.986Z,13.98
2018-11-02T14:27:18.792Z,14.47
2018-11-02T14:32:22.385Z,14.11
2018-11-02T14:37:25.702Z,13.84
2018-11-02T14:42:28.850Z,13.85
2018-11-02T14:47:32.048Z,13.87
2018-11-02T14:52:35.395Z,13.68
2018-11-02T14:57:38.566Z,13.22
2018-11-02T15:02:41.867Z,12.63
2018-11-02T15:07:45.150Z,12.20
2018-11-02T15:12:48.589Z,11.74
2018-11-02T15:17:51.935Z,11.29
2018-11-02T15:22:56.271Z,10.87
2018-11-02T15:27:59.503Z,10.51
2018-11-02T15:33:02.801Z,10.12
2018-11-02T15:38:06.010Z,9.73
2018-11-02T15:43:14.900Z,9.39
2018-11-02T15:48:18.214Z,9.17
2018-11-02T15:53:21.562Z,8.88
2018-11-02T15:58:24.664Z,8.54
2018-11-02T16:03:28.137Z,8.27
2018-11-02T16:08:32.798Z,7.96
2018-11-02T16:13:36.389Z,7.74
2018-11-02T16:18:39.642Z,7.57
2018-11-02T16:23:42.881Z,7.39
2018-11-02T16:28:46.103Z,7.23
2018-11-02T16:33:49.637Z,7.03
2018-11-02T16:38:56.601Z,7.14
2018-11-02T16:43:59.874Z,6.99
2018-11-02T16:49:03.175Z,6.83
2018-11-02T16:54:07.068Z,6.62
2018-11-02T16:59:10.385Z,6.51
2018-11-02T17:04:13.642Z,6.36
2018-11-02T17:09:16.883Z,6.19
2018-11-02T17:14:20.247Z,6.14
2018-11-02T17:19:23.591Z,6.00
2018-11-02T17:24:26.865Z,5.80
2018-11-02T17:29:30.098Z,5.71
2018-11-02T17:34:33.746Z,5.65
2018-11-02T17:39:36.992Z,5.60
2018-11-02T17:44:43.233Z,5.46
2018-11-02T17:49:46.681Z,5.44
2018-11-02T17:54:49.966Z,5.49
2018-11-02T17:59:53.308Z,5.61
2018-11-02T18:04:56.846Z,5.71
2018-11-02T18:10:00.088Z,5.84
2018-11-02T18:15:03.307Z,5.86
2018-11-02T18:20:13.318Z,5.81
2018-11-02T18:25:17.089Z,5.67
2018-11-02T18:30:20.886Z,5.57
2018-11-02T18:35:24.265Z,5.45
2018-11-02T18:40:27.473Z,5.35
2018-11-02T18:45:30.717Z,5.10
2018-11-02T18:50:34.006Z,4.90
2018-11-02T18:55:37.193Z,4.82
2018-11-02T19:00:40.457Z,4.76
2018-11-02T19:05:43.872Z,4.74
2018-11-02T19:10:47.190Z,4.74
2018-11-02T19:15:50.569Z,4.89
2018-11-02T19:21:00.044Z,4.85
2018-11-02T19:26:04.047Z,4.91
2018-11-02T19:31:08.036Z,4.91
2018-11-02T19:36:14.448Z,5.02
2018-11-02T19:41:18.956Z,5.19
2018-11-02T19:46:30.832Z,5.34
2018-11-02T19:51:36.620Z,5.41
2018-11-02T19:56:45.187Z,5.31
2018-11-02T20:01:49.752Z,5.38
2018-11-02T20:06:54.266Z,5.37
2018-11-02T20:12:01.237Z,5.37
2018-11-02T20:17:13.175Z,5.34
2018-11-02T20:22:16.393Z,5.31
2018-11-02T20:27:21.629Z,5.36
2018-11-02T20:32:24.848Z,5.44
2018-11-02T20:37:28.198Z,5.51
2018-11-02T20:42:33.984Z,5.42
2018-11-02T20:47:37.199Z,5.27
2018-11-02T20:52:40.444Z,5.19
2018-11-02T20:57:43.792Z,5.16
2018-11-02T21:02:47.077Z,5.11
2018-11-02T21:07:50.631Z,5.06
2018-11-02T21:12:53.899Z,5.04
2018-11-02T21:17:57.157Z,5.00
2018-11-02T21:23:00.898Z,4.95
2018-11-02T21:28:04.690Z,5.00
2018-11-02T21:33:07.971Z,4.88
2018-11-02T21:38:11.718Z,4.81
2018-11-02T21:43:14.994Z,4.77
2018-11-02T21:48:18.278Z,4.79
2018-11-02T21:53:21.482Z,4.76
2018-11-02T21:58:24.966Z,4.68
2018-11-02T22:03:28.313Z,4.68
2018-11-02T22:08:33.661Z,4.71
2018-11-02T22:13:37.210Z,4.68
2018-11-02T22:18:40.556Z,4.80
2018-11-02T22:23:43.887Z,4.81
2018-11-02T22:28:47.334Z,4.80
2018-11-02T22:33:51.984Z,4.79
2018-11-02T22:38:56.142Z,4.80
2018-11-02T22:43:59.525Z,4.85
2018-11-02T22:49:02.808Z,4.98
2018-11-02T22:54:08.328Z,5.15
2018-11-02T22:59:12.321Z,5.15
2018-11-02T23:04:15.535Z,5.20
2018-11-02T23:09:18.842Z,5.20
2018-11-02T23:14:22.022Z,5.25
2018-11-02T23:19:25.236Z,5.26
2018-11-02T23:24:28.782Z,5.29
2018-11-02T23:34:42.263Z,5.08
2018-11-02T23:39:45.437Z,4.99
2018-11-02T23:44:48.650Z,4.88
2018-11-02T23:49:51.833Z,4.77
2018-11-02T23:54:55.557Z,4.81
2018-11-02T23:59:58.914Z,4.75
